Flight Track Log - Related Links

Times and Time Zones

All times are in EDT time to prevent confusion due to time zone crossing. See the UCA3597 flight status page for this flight to view local times or setup timezone preferences in your user account.

Time Position Orientation Groundspeed Altitude Reporting Facility
EDT Latitude Longitude Course Direction KTS MPH feet Rate Location/Type
Wed 05:57:00 PM 39.3568 -77.2823 19° North  Level Estimated
Wed 05:58:00 PM 39.4250 -77.2525 19° North  Level Estimated
Wed 05:59:00 PM 39.4932 -77.2226 19° North  Level Estimated
Wed 06:00:00 PM 39.5614 -77.1927 19° North  Level Estimated
Wed 06:01:00 PM 39.6296 -77.1627 19° North  Level Estimated
Wed 06:02:00 PM 39.6977 -77.1326 19° North  Level Estimated
Wed 06:03:00 PM 39.7659 -77.1025 19° North  Level Estimated
Wed 06:04:00 PM 39.8340 -77.0723 19° North  Level Estimated
Wed 06:05:00 PM 39.9022 -77.0421 19° North  Level Estimated
Wed 06:06:00 PM 39.9703 -77.0118 19° North  Level Estimated
Wed 06:07:00 PM 40.0385 -76.9815 19° North  Level Estimated
Wed 06:08:00 PM 40.1066 -76.9511 19° North  Level Estimated
Wed 06:09:00 PM 40.1747 -76.9206 19° North  Level Estimated
Wed 06:10:00 PM 40.2428 -76.8901 19° North  Level Estimated
Wed 06:11:00 PM 40.3109 -76.8595 19° North  Level Estimated
Wed 06:12:00 PM 40.3790 -76.8288 19° North  Level Estimated
Wed 06:13:00 PM 40.4471 -76.7981 19° North  Level Estimated
Wed 06:14:00 PM 40.5151 -76.7673 19° North  Level Estimated
Wed 06:15:00 PM 40.5832 -76.7365 19° North  Level Estimated
Wed 06:16:00 PM 40.6513 -76.7056 19° North  Level Estimated
Wed 06:17:00 PM 40.7193 -76.6746 19° North  Level Estimated
Wed 06:18:00 PM 40.7874 -76.6436 19° North  Level Estimated
Wed 06:19:00 PM 40.8554 -76.6125 19° North  Level Estimated
Wed 06:20:00 PM 40.9234 -76.5814 19° North  Level Estimated
Wed 06:21:00 PM 40.9914 -76.5501 19° North  Level Estimated
Wed 06:22:00 PM 41.0594 -76.5188 19° North  Level Estimated
Wed 06:23:00 PM 41.1274 -76.4875 19° North  Level Estimated
Wed 06:24:00 PM 41.1954 -76.4561 19° North  Level Estimated
Wed 06:25:00 PM 41.2634 -76.4246 19° North  Level Estimated
Wed 06:26:00 PM 41.3314 -76.3930 19° North  Level Estimated
Wed 06:27:00 PM 41.3994 -76.3614 19° North  Level Estimated
Wed 06:28:00 PM 41.4673 -76.3298 19° North  Level Estimated
Wed 06:29:00 PM 41.5353 -76.2980 19° North  Level Estimated
Wed 06:30:00 PM 41.6032 -76.2662 19° North  Level Estimated
Wed 06:31:00 PM 41.6711 -76.2343 19° North  Level Estimated
Wed 06:32:00 PM 41.7391 -76.2024 19° North  Level Estimated
Wed 06:33:00 PM 41.8070 -76.1703 19° North  Level Estimated
Wed 06:34:00 PM 41.8749 -76.1383 19° North  Level Estimated
Wed 06:35:00 PM 41.9428 -76.1061 19° North  Level Estimated
Wed 06:36:00 PM 42.0107 -76.0739 19° North  Level Estimated
Wed 06:37:00 PM 42.0785 -76.0416 19° North  Level Estimated
Wed 06:38:00 PM 42.1464 -76.0093 19° North  Level Estimated
Wed 06:39:00 PM 42.2084 -75.9796 19° North  Level Estimated
Wed 06:40:00 PM 42.2084 -75.9796 North  Level Estimated
Wed 06:41:00 PM 42.2084 -75.9796 North  Level Estimated
Wed 06:42:00 PM 42.2084 -75.9796 North  Level Estimated
Wed 06:43:00 PM 42.2084 -75.9796 North  Level Estimated
Wed 06:44:00 PM 42.2084 -75.9796 North  Level Estimated
Wed 06:45:00 PM 42.2084 -75.9796 North  Level Estimated
Wed 06:46:00 PM 42.2084 -75.9796 North  Level Estimated
Wed 06:47:00 PM 42.2084 -75.9796 North  Level Estimated
Wed 06:48:00 PM 42.2084 -75.9796 North  Level Estimated
Wed 06:49:00 PM 42.2084 -75.9796 North  Level Estimated
Wed 06:50:00 PM 42.2084 -75.9796 North  Level Estimated
Wed 06:51:00 PM 42.2084 -75.9796 North  Level Estimated
Wed 06:52:00 PM 42.2084 -75.9796 North  Level Estimated
Wed 06:53:00 PM 42.2084 -75.9796 North  Level Estimated
Wed 06:54:00 PM 42.2084 -75.9796 North  Level Estimated
Wed 06:55:00 PM 42.2084 -75.9796 North  Level Estimated

Login

Don't have an account? Register now (free) for customized features, flight alerts, and more!